Yuanling, China
Current Conditions -  °F | °C
As of 4:00 PM on Thursday 23 Oct 2014 (Local Time) from ZGHA Reporting Station
Few Clouds Few Clouds  
Wind Chill: 79°   Ceiling: Unl
Heat Index: 79°   Visibility: 6mi
Dew Point: 48°   Wind: 2mph
Humidity: 34%   Direction: NA
Pressure: 30"   Gusts: NA
Location:  28.47°N, 110.4°E
Report Text: ZGHA 230800Z VRB01MPS 9999 FEW050 26/09 Q1016 NOSIG
Loading
Personal Weather Stations






























Interactive Weather Map
Tropical Storm Tracking
New forecast layout! Learn more

10-Day Weather Forecast

Advertisements
Track Severe Weather on mobile